PKWA TAF

86.5 °F / 30.3 °C
ENE at 8 MPH
69%
75.2°F / 24.0 °C
29.7" (1005 mb)
10 mile(s)
partly cloudy

PKWA TAF

2017/11/22 18:39
TAF PKWA 221734Z 2218/2318 08010KT P6SM VCSH SCT020